Latest Weather Observations for Grafton Airport

IDN60801

Issued at 7:02 am EST Thursday 5 May 2016 (issued every 30 minutes, with the page automatically refreshed every 10 minutes)

About weather observations | Map of weather stations | Latest weather observations for NSW | Other Formats
Station Details ID: 058161 Name: GRAFTON AIRPORT AWS Lat: -29.76 Lon: 153.03 Height: 25.09 m
Data from the previous 72 hours. | See also: Recent months at Grafton Airport
Date/Time
EST
Temp
°C
App
Temp
°C
Dew
Point
Rel
Hum
%
Delta-T
°C
Wind Press
QNH
hPa
Press
MSL
hPa
Rain
since 9 am
mm
Dir
 
Spd
km/h
Gust
km/h
Spd
kts
Gust
kts
05/07:00am 10.1 10.0 9.5 96 0.3 CALM 0 0 0 0 1020.9 1020.9 0.0
05/06:30am 9.4 9.1 8.6 95 0.4 CALM 0 0 0 0 1020.5 1020.5 0.0
05/06:00am 9.9 9.8 9.3 96 0.3 CALM 0 6 0 3 1020.1 1020.1 0.0
05/05:30am 10.2 10.1 9.6 96 0.3 CALM 0 6 0 3 1019.7 1019.7 0.0
05/05:00am 10.4 9.3 9.9 97 0.3 SSW 6 7 3 4 1019.5 1019.5 0.0
05/04:30am 9.9 9.3 9.1 95 0.4 SSW 2 6 1 3 1019.2 1019.2 0.0
05/04:00am 10.3 9.9 9.7 96 0.3 SSW 2 9 1 5 1019.0 1019.0 0.0
05/03:30am 10.4 10.3 9.6 95 0.4 CALM 0 0 0 0 1018.7 1018.7 0.0
05/03:00am 10.4 10.3 9.5 94 0.4 CALM 0 0 0 0 1018.6 1018.6 0.0
05/02:30am 10.6 10.6 9.7 94 0.5 CALM 0 0 0 0 1018.7 1018.7 0.0
05/02:00am 10.9 11.0 10.0 94 0.5 CALM 0 0 0 0 1018.8 1018.8 0.0
05/01:30am 11.1 11.2 10.0 93 0.6 CALM 0 0 0 0 1018.9 1018.9 0.0
05/01:00am 11.4 11.5 10.1 92 0.7 CALM 0 0 0 0 1019.2 1019.2 0.0
05/12:30am 11.6 11.7 10.0 90 0.8 CALM 0 0 0 0 1019.2 1019.2 0.0
05/12:00am 12.2 12.3 10.3 88 1.0 CALM 0 0 0 0 1019.3 1019.3 0.0
 
Date/Time
EST
Temp
°C
App
Temp
°C
Dew
Point
Rel
Hum
%
Delta-T
°C
Wind Press
QNH
hPa
Press
MSL
hPa
Rain
since 9 am
mm
Dir
 
Spd
km/h
Gust
km/h
Spd
kts
Gust
kts
04/11:30pm 12.8 13.1 10.9 88 1.0 CALM 0 0 0 0 1019.4 1019.4 0.0
04/11:00pm 13.2 12.1 10.6 84 1.4 SSW 7 11 4 6 1019.4 1019.4 0.0
04/10:30pm 13.1 12.0 10.8 86 1.2 SSW 7 9 4 5 1019.3 1019.3 0.0
04/10:00pm 13.8 12.8 11.1 84 1.4 S 7 9 4 5 1019.3 1019.3 0.0
04/09:30pm 13.3 12.4 10.8 85 1.3 SSW 6 7 3 4 1019.4 1019.4 0.0
04/09:00pm 13.5 13.0 10.9 84 1.4 SSW 4 7 2 4 1019.3 1019.3 0.0
04/08:30pm 14.7 13.8 11.3 80 1.8 SSW 7 7 4 4 1019.0 1019.0 0.0
04/08:00pm 14.7 13.4 11.3 80 1.8 SSW 9 11 5 6 1018.9 1018.9 0.0
04/07:30pm 15.0 14.6 11.0 77 2.1 SSW 4 7 2 4 1018.6 1018.6 0.0
04/07:00pm 15.7 14.6 10.5 71 2.7 SSW 7 9 4 5 1018.3 1018.3 0.0
04/06:30pm 17.8 18.0 10.4 62 4.0 CALM 0 0 0 0 1017.7 1017.7 0.0
04/06:00pm 18.1 17.7 8.4 53 5.0 CALM 0 0 0 0 1017.2 1017.2 0.0
04/05:30pm 20.2 18.5 8.2 46 6.2 SE 7 11 4 6 1016.5 1016.5 0.0
04/05:00pm 21.3 18.9 7.2 40 7.2 ESE 9 13 5 7 1016.1 1016.1 0.0
04/04:30pm 23.1 20.3 6.8 35 8.4 E 11 15 6 8 1015.6 1015.6 0.0
04/04:00pm 24.2 21.5 7.4 34 8.8 ENE 11 17 6 9 1015.4 1015.4 0.0
04/03:30pm 24.7 21.6 5.5 29 9.8 ESE 11 20 6 11 1015.1 1015.1 0.0
04/03:00pm 25.2 21.9 6.4 30 9.7 E 13 20 7 11 1014.9 1014.9 0.0
04/02:30pm 25.5 22.5 7.6 32 9.5 E 13 20 7 11 1014.6 1014.6 0.0
04/02:00pm 25.6 22.8 8.6 34 9.2 E 13 20 7 11 1014.6 1014.6 0.0
04/01:30pm 25.5 23.8 9.7 37 8.7 ESE 9 17 5 9 1014.6 1014.6 0.0
04/01:00pm 25.2 22.5 10.3 39 8.3 SE 15 20 8 11 1014.9 1014.9 0.0
04/12:30pm 25.8 25.2 11.6 41 8.1 NE 6 15 3 8 1015.3 1015.3 0.0
04/12:00pm 24.8 22.2 9.5 38 8.4 SE 13 19 7 10 1015.7 1015.7 0.0
04/11:30am 24.5 22.9 8.0 35 8.8 SE 6 9 3 5 1016.3 1016.3 0.0
04/11:00am 24.0 22.9 10.7 43 7.4 SSE 7 9 4 5 1016.6 1016.6 0.0
04/10:30am 22.7 21.6 10.8 47 6.6 ESE 7 11 4 6 1017.0 1017.0 0.0
04/10:00am 22.1 20.8 11.2 50 6.0 SW 9 15 5 8 1017.2 1017.2 0.0
04/09:30am 20.6 20.3 13.3 63 4.2 SW 7 11 4 6 1017.2 1017.2 0.0
04/09:00am 19.5 20.4 12.8 65 3.8 CALM 0 0 0 0 1016.9 1016.9 0.2
04/08:30am 18.1 19.0 12.8 71 3.0 CALM 0 0 0 0 1016.8 1016.8 0.2
04/08:00am 15.3 16.1 12.4 83 1.6 CALM 0 0 0 0 1016.6 1016.6 0.2
04/07:30am 13.7 14.5 12.6 93 0.6 CALM 0 0 0 0 1016.3 1016.3 0.2
04/07:00am 12.3 11.5 11.8 97 0.3 SSW 7 9 4 5 1015.8 1015.8 0.2
04/06:30am 11.3 11.5 10.7 96 0.3 CALM 0 4 0 2 1015.4 1015.4 0.2
04/06:00am 11.3 10.4 10.5 95 0.4 SW 6 7 3 4 1015.0 1015.0 0.2
04/05:30am 11.7 12.0 10.8 94 0.5 CALM 0 0 0 0 1014.2 1014.2 0.2
04/05:00am 12.6 13.0 11.2 91 0.7 CALM 0 0 0 0 1013.7 1013.7 0.2
04/04:30am 13.1 12.9 11.8 92 0.7 SSE 4 9 2 5 1013.4 1013.4 0.2
04/04:00am 14.0 14.8 12.4 90 0.9 CALM 0 0 0 0 1013.2 1013.2 0.2
04/03:30am 14.5 15.3 12.5 88 1.1 CALM 0 0 0 0 1013.0 1013.0 0.2
04/03:00am 14.5 14.6 12.7 89 1.0 S 4 7 2 4 1012.7 1012.7 0.2
04/02:30am 14.8 15.1 12.3 85 1.4 SW 2 6 1 3 1012.7 1012.7 0.2
04/02:00am 15.9 15.2 11.9 77 2.2 S 7 9 4 5 1012.6 1012.6 0.2
04/01:30am 16.7 17.2 12.7 77 2.2 WSW 2 7 1 4 1012.5 1012.5 0.2
04/01:00am 16.2 16.6 12.4 78 2.1 W 2 7 1 4 1012.5 1012.5 0.2
04/12:30am 15.3 15.0 13.2 87 1.2 SW 7 9 4 5 1012.6 1012.6 0.2
04/12:00am 14.6 14.7 13.8 95 0.4 SSE 6 7 3 4 1012.8 1012.8 0.2
 
Date/Time
EST
Temp
°C
App
Temp
°C
Dew
Point
Rel
Hum
%
Delta-T
°C
Wind Press
QNH
hPa
Press
MSL
hPa
Rain
since 9 am
mm
Dir
 
Spd
km/h
Gust
km/h
Spd
kts
Gust
kts
03/11:30pm 14.7 15.7 14.2 97 0.3 S 2 7 1 4 1013.0 1013.0 0.2
03/11:22pm 14.5 15.7 13.9 96 0.3 CALM 0 0 0 0 1013.0 1013.0 0.2
03/11:00pm 14.7 15.9 13.9 95 0.4 CALM 0 0 0 0 1013.1 1013.1 0.2
03/10:51pm 14.4 15.4 13.3 93 0.6 CALM 0 0 0 0 1013.0 1013.0 0.2
03/10:30pm 15.3 16.7 14.3 94 0.6 CALM 0 0 0 0 1013.0 1013.0 0.2
03/10:02pm 15.4 16.9 14.6 95 0.5 CALM 0 0 0 0 1013.2 1013.2 0.2
03/10:00pm 15.4 16.9 14.6 95 0.5 CALM 0 0 0 0 1013.1 1013.1 0.2
03/09:36pm 15.2 16.4 13.7 91 0.8 CALM 0 0 0 0 1013.1 1013.1 0.2
03/09:30pm 15.4 16.6 13.9 91 0.8 CALM 0 0 0 0 1013.0 1013.0 0.2
03/09:00pm 16.2 17.7 14.7 91 0.9 CALM 0 0 0 0 1012.8 1012.8 0.2
03/08:30pm 16.6 18.1 14.6 88 1.1 CALM 0 0 0 0 1012.7 1012.7 0.2
03/08:00pm 17.4 17.8 15.4 88 1.2 S 7 9 4 5 1012.4 1012.4 0.2
03/07:30pm 18.0 18.6 15.3 84 1.6 S 6 9 3 5 1012.4 1012.4 0.2
03/07:00pm 18.8 19.8 15.3 80 2.1 WSW 4 11 2 6 1012.2 1012.2 0.2
03/06:30pm 19.5 20.7 15.0 75 2.6 NW 2 7 1 4 1011.1 1011.0 0.2
03/06:00pm 21.2 21.2 15.3 69 3.5 ESE 9 13 5 7 1010.7 1010.6 0.2
03/05:30pm 21.8 22.1 14.9 65 4.1 S 7 15 4 8 1010.3 1010.2 0.2
03/05:00pm 23.2 22.6 14.5 58 5.1 E 11 15 6 8 1009.6 1009.5 0.2
03/04:30pm 25.7 24.6 13.2 46 7.3 NNE 11 13 6 7 1009.2 1009.1 0.2
03/04:00pm 26.9 25.8 11.8 39 8.7 N 9 13 5 7 1009.1 1009.0 0.2
03/03:30pm 27.2 26.2 13.5 42 8.1 N 11 17 6 9 1009.0 1008.9 0.2
03/03:00pm 27.0 26.4 13.4 43 8.0 NNW 9 19 5 10 1009.1 1009.0 0.2
03/02:30pm 27.0 26.0 13.4 43 8.0 N 11 19 6 10 1009.2 1009.1 0.2
03/02:00pm 26.7 25.2 12.0 40 8.5 NNW 11 19 6 10 1009.4 1009.3 0.2
03/01:30pm 27.1 26.5 13.4 42 8.1 N 9 17 5 9 1009.8 1009.7 0.2
03/01:00pm 26.6 27.4 15.9 51 6.6 NNE 6 15 3 8 1010.4 1010.3 0.2
03/12:30pm 26.0 26.4 15.4 52 6.4 NNE 7 20 4 11 1010.8 1010.7 0.2
03/12:00pm 25.8 26.7 14.0 48 7.0 ENE 2 7 1 4 1011.4 1011.3 0.2
03/11:30am 24.8 25.3 14.9 54 5.9 NNW 6 13 3 7 1012.0 1012.0 0.2
03/11:00am 24.0 24.5 15.5 59 5.1 NW 7 15 4 8 1012.5 1012.5 0.2
03/10:30am 23.3 23.9 15.4 61 4.7 WNW 6 15 3 8 1013.2 1013.2 0.2
03/10:00am 22.6 23.2 15.4 64 4.3 WNW 6 9 3 5 1013.6 1013.6 0.2
03/09:30am 21.3 22.0 16.0 72 3.2 NW 7 11 4 6 1013.9 1013.9 0.0
03/09:00am 19.6 20.4 15.9 79 2.2 NW 6 9 3 5 1014.0 1014.0 8.4
03/08:30am 17.9 20.0 17.1 95 0.5 NW 2 7 1 4 1014.1 1014.1 8.4
03/08:23am 17.3 19.3 17.0 98 0.2 NNW 2 7 1 4 1014.1 1014.1 8.4
03/08:04am 16.7 18.2 16.7 100 0.0 NE 4 7 2 4 1014.1 1014.1 8.4
03/08:03am 16.5 17.9 16.5 100 0.0 NE 4 7 2 4 1014.1 1014.1 8.4
03/08:00am 16.6 18.5 16.6 100 0.0 NE 2 7 1 4 1014.1 1014.1 8.4
03/07:30am 16.0 16.9 16.0 100 0.0 NNE 6 7 3 4 1014.0 1014.0 8.4
03/07:00am 15.1 16.4 15.1 100 0.0 N 2 7 1 4 1013.8 1013.8 8.4
03/06:30am 14.3 14.5 14.1 99 0.1 NE 6 7 3 4 1013.6 1013.6 8.4
03/06:22am 14.1 14.2 13.9 99 0.1 ENE 6 7 3 4 1013.6 1013.6 8.4
03/06:00am 14.3 15.2 14.0 98 0.2 NE 2 7 1 4 1013.5 1013.5 8.4
03/05:55am 14.2 15.4 13.9 98 0.2 CALM 0 0 0 0 1013.5 1013.5 8.4
03/05:30am 15.0 16.6 14.8 99 0.1 CALM 0 0 0 0 1013.4 1013.4 8.4
03/05:24am 15.2 16.8 15.0 99 0.1 CALM 0 0 0 0 1013.4 1013.4 8.4
03/05:00am 14.7 14.9 14.2 97 0.3 NE 6 9 3 5 1012.9 1012.9 8.4
03/04:30am 15.0 15.3 14.5 97 0.3 NE 6 7 3 4 1012.9 1012.9 8.4
03/04:00am 15.6 17.3 15.1 97 0.3 CALM 0 0 0 0 1012.8 1012.8 8.4
03/03:30am 15.9 17.7 15.4 97 0.3 CALM 0 0 0 0 1012.6 1012.6 8.4
03/03:00am 16.2 18.0 15.4 95 0.5 CALM 0 0 0 0 1012.7 1012.7 8.4
03/02:30am 16.1 16.5 14.8 92 0.7 NNE 6 7 3 4 1012.6 1012.6 8.4
03/02:26am 16.1 16.9 14.8 92 0.7 W 4 7 2 4 1012.6 1012.6 8.4
03/02:00am 17.2 18.9 16.1 93 0.7 WSW 2 7 1 4 1013.2 1013.2 8.4
03/01:30am 17.3 19.4 16.2 93 0.7 CALM 0 0 0 0 1013.7 1013.7 8.4
03/01:00am 17.5 18.9 16.4 93 0.7 SW 4 7 2 4 1014.0 1014.0 8.4
03/12:30am 17.5 18.9 16.4 93 0.7 W 4 6 2 3 1014.6 1014.6 8.4
03/12:00am 17.8 18.7 16.7 93 0.7 NNE 7 9 4 5 1014.5 1014.5 8.4
 
Date/Time
EST
Temp
°C
App
Temp
°C
Dew
Point
Rel
Hum
%
Delta-T
°C
Wind Press
QNH
hPa
Press
MSL
hPa
Rain
since 9 am
mm
Dir
 
Spd
km/h
Gust
km/h
Spd
kts
Gust
kts
02/11:30pm 17.9 18.6 17.1 95 0.5 WSW 9 15 5 8 1015.4 1015.4 8.4
02/11:00pm 17.9 20.0 17.3 96 0.4 WSW 2 7 1 4 1015.7 1015.7 8.4
02/10:30pm 17.8 19.1 17.2 96 0.4 N 6 7 3 4 1016.1 1016.1 8.2
02/10:00pm 18.0 18.8 17.4 96 0.4 N 9 11 5 6 1016.0 1016.0 8.2
02/09:30pm 18.3 19.9 17.0 92 0.8 S 4 9 2 5 1016.7 1016.7 8.0
02/09:02pm 18.5 18.6 17.5 94 0.6 SSE 13 15 7 8 1016.9 1016.9 7.6
02/09:00pm 18.5 19.0 17.5 94 0.6 SSE 11 15 6 8 1016.9 1016.9 7.4
02/08:30pm 18.9 18.3 16.7 87 1.3 W 15 26 8 14 1017.7 1017.7 4.0
02/08:10pm 20.5 23.8 19.2 92 0.8 CALM 0 0 0 0 1017.2 1017.2 0.6
02/08:00pm 20.7 24.0 19.2 91 0.9 CALM 0 7 0 4 1017.0 1017.0 0.2
02/07:30pm 20.6 23.7 18.7 89 1.2 CALM 0 0 0 0 1016.5 1016.5 0.0
02/07:00pm 20.9 24.1 18.8 88 1.3 CALM 0 0 0 0 1016.1 1016.1 0.0
02/06:30pm 21.2 24.3 18.6 85 1.6 CALM 0 0 0 0 1016.2 1016.2 0.0
02/06:00pm 21.8 24.9 18.6 82 2.0 CALM 0 0 0 0 1015.6 1015.6 0.0
02/05:30pm 22.1 23.5 18.7 81 2.1 ESE 9 13 5 7 1014.7 1014.7 0.0
02/05:00pm 22.5 24.2 18.5 78 2.5 E 7 13 4 7 1014.6 1014.6 0.0
02/04:30pm 23.0 24.2 18.3 75 3.0 ESE 9 15 5 8 1014.4 1014.4 0.0
02/04:00pm 24.0 24.8 18.2 70 3.6 E 11 15 6 8 1014.3 1014.3 0.0
02/03:30pm 24.4 24.6 17.6 66 4.2 E 13 19 7 10 1013.8 1013.8 0.0
02/03:00pm 25.1 24.6 16.8 60 5.1 E 15 22 8 12 1013.2 1013.2 0.0
02/02:30pm 26.0 26.8 17.4 59 5.4 NE 9 17 5 9 1013.4 1013.4 0.0
02/02:00pm 26.6 26.6 15.3 50 6.9 ENE 9 15 5 8 1013.6 1013.6 0.0
02/01:30pm 25.8 25.1 14.3 49 6.8 ENE 11 17 6 9 1013.8 1013.8 0.0
02/01:00pm 26.7 26.1 13.4 43 7.8 ESE 9 15 5 8 1014.4 1014.4 0.0
02/12:30pm 26.6 26.9 14.4 47 7.3 ENE 6 13 3 7 1015.0 1015.0 0.0
02/12:00pm 26.6 27.3 15.6 50 6.7 N 6 11 3 6 1015.5 1015.5 0.0
02/11:30am 25.2 26.3 14.6 51 6.3 N 2 9 1 5 1016.0 1016.0 0.0
02/11:00am 24.6 26.2 15.0 55 5.7 CALM 0 4 0 2 1016.8 1016.8 0.0
02/10:30am 22.6 23.8 15.9 66 4.0 W 4 11 2 6 1017.4 1017.4 0.0
02/10:00am 22.1 23.3 15.9 68 3.7 SE 4 7 2 4 1017.7 1017.7 0.0
02/09:30am 20.3 21.4 16.5 79 2.3 S 6 7 3 4 1018.1 1018.1 0.0
02/09:00am 18.8 19.5 15.7 82 1.8 SSW 6 9 3 5 1018.1 1018.1 10.6
02/08:30am 17.3 17.7 15.3 88 1.2 SW 7 9 4 5 1018.2 1018.2 10.6
02/08:00am 16.2 17.0 15.9 98 0.2 SW 6 9 3 5 1018.2 1018.2 10.6
02/07:30am 15.4 16.8 15.4 100 0.0 SSW 2 7 1 4 1018.0 1018.0 10.6

Other Formats:

Comma delimited format used in spreadsheet applications
http://www.bom.gov.au/fwo/IDN60801/IDN60801.95570.axf

JavaScript Object Notation format (JSON) in row-major order
http://www.bom.gov.au/fwo/IDN60801/IDN60801.95570.json